Terminal Aerodrome Forecast
Issued by NWS Grand Junction, CO

Home | Current Version | Previous Version | Text Only | Print | Product List | Glossary On
Versions: 1 2 3 4 5 6 7 8 9 10 11 12 13 14 15 16 17 18 19 20 21 22 23 24 25 26 27 28
829
FTUS45 KGJT 010052 AAA
TAFGJT
TAF AMD
KGJT 010052Z 0101/0124 34009KT P6SM FEW110 SCT150
     FM010200 06006KT P6SM SCT150
     FM010500 10006KT P6SM SKC
     FM011200 14007KT P6SM SKC
     FM011800 34008G14KT P6SM FEW100 SCT250=

USA.gov is the U.S. government's official web portal to all federal, state and local government web resources and services.